Terminal Aerodrome Forecast
Issued by NWS Wakefield, VA

Home | Current Version | Previous Version | Text Only | Print | Product List | Glossary On
Versions: 1 2 3 4 5 6 7 8 9 10 11 12 13 14 15 16 17
000
FTUS41 KAKQ 220700 AAA
TAFSBY
TAF AMD
KSBY 220722Z 2207/2306 34005KT P6SM SCT015 OVC080
      TEMPO 2207/2211 5SM -RA BR BKN005
     FM221300 34010KT 5SM -RA BR BKN008 OVC015
     FM221700 34015G24KT 5SM -RA BR BKN015 OVC040
     FM230000 33015G23KT P6SM OVC025=

USA.gov is the U.S. government's official web portal to all federal, state and local government web resources and services.